Time;durP1;ratioP1;P1;durP2;ratioP2;P2;SDS_P1;SDS_P2;PMS_P1;PMS_P2;Temp;Humidity;BMP_temperature;BMP_pressure;BME280_temperature;BME280_humidity;BME280_pressure;Samples;Min_cycle;Max_cycle;Signal;HPM_P1;HPM_P2
2022/01/04 00:00:18;;;;;;;1.37;0.80;;;;;;;11.12;83.82;97736.00;5018113;27;102861;-68
2022/01/04 00:02:46;;;;;;;2.10;1.03;;;;;;;11.07;84.28;97731.13;5016332;27;103688;-68
2022/01/04 00:05:15;;;;;;;1.63;1.00;;;;;;;11.12;83.88;97722.78;5008590;28;103213;-68
2022/01/04 00:07:43;;;;;;;1.77;1.40;;;;;;;11.04;84.40;97726.94;5019511;27;102766;-68
2022/01/04 00:10:20;;;;;;;2.90;1.30;;;;;;;11.14;84.17;97721.69;5010608;28;102712;-68
2022/01/04 00:15:35;;;;;;;1.63;0.90;;;;;;;11.04;85.02;97711.09;5012698;28;104196;-68
2022/01/04 00:18:06;;;;;;;2.10;0.90;;;;;;;11.04;85.06;97700.53;5020167;27;102650;-68
2022/01/04 00:20:34;;;;;;;2.83;1.10;;;;;;;11.11;84.94;97706.09;5020074;27;104295;-68
2022/01/04 00:23:02;;;;;;;2.87;0.97;;;;;;;11.08;85.18;97693.16;5019339;27;103320;-68
2022/01/04 00:25:32;;;;;;;2.67;0.90;;;;;;;11.09;85.15;97691.34;5020712;27;103224;-68
2022/01/04 00:28:01;;;;;;;2.00;0.90;;;;;;;11.12;85.16;97691.06;5020985;27;102998;-68
2022/01/04 00:30:29;;;;;;;1.37;0.80;;;;;;;10.99;85.54;97681.59;5006206;28;103993;-68
2022/01/04 00:32:57;;;;;;;1.20;0.90;;;;;;;11.04;85.69;97689.94;5019298;27;103035;-69
2022/01/04 00:35:25;;;;;;;1.83;0.90;;;;;;;11.05;85.55;97686.34;5009919;28;103245;-68
2022/01/04 00:37:53;;;;;;;2.53;0.70;;;;;;;11.03;85.71;97672.41;5018287;27;102638;-68
2022/01/04 00:40:22;;;;;;;2.97;1.03;;;;;;;11.06;85.67;97661.56;5017801;27;102752;-68
2022/01/04 00:42:52;;;;;;;2.23;0.80;;;;;;;11.13;85.53;97655.72;5016431;27;103253;-68
2022/01/04 00:45:20;;;;;;;1.57;0.90;;;;;;;11.11;85.59;97655.03;5018085;27;104140;-68
2022/01/04 00:50:31;;;;;;;1.17;0.80;;;;;;;11.15;85.42;97641.41;5021042;27;102714;-68
2022/01/04 00:53:00;;;;;;;0.97;0.73;;;;;;;11.19;85.29;97640.16;5017923;27;103640;-68
2022/01/04 00:55:29;;;;;;;1.27;0.80;;;;;;;11.12;85.71;97633.75;5020037;28;103293;-68
2022/01/04 00:57:59;;;;;;;3.90;0.90;;;;;;;11.16;85.40;97634.31;5015294;27;102610;-68
2022/01/04 01:00:27;;;;;;;1.10;0.90;;;;;;;11.16;85.43;97632.50;5020178;27;104008;-68
2022/01/04 01:02:55;;;;;;;1.30;0.80;;;;;;;11.15;85.59;97633.47;5012010;28;104678;-68
2022/01/04 01:05:26;;;;;;;1.63;0.80;;;;;;;11.10;85.83;97624.28;5019461;28;103291;-68
2022/01/04 01:07:54;;;;;;;1.23;1.00;;;;;;;11.15;85.55;97616.75;5018514;28;102568;-68
2022/01/04 01:10:40;;;;;;;1.33;0.90;;;;;;;11.20;85.48;97611.91;5016586;27;103793;-68
2022/01/04 01:13:11;;;;;;;1.20;0.80;;;;;;;11.18;85.38;97606.75;5013609;27;103406;-68
2022/01/04 01:15:41;;;;;;;1.77;0.80;;;;;;;11.18;85.39;97595.34;5019432;27;103216;-68
2022/01/04 01:18:09;;;;;;;2.43;0.80;;;;;;;11.22;85.24;97589.66;5019033;27;102561;-68
2022/01/04 01:20:37;;;;;;;1.13;0.70;;;;;;;11.16;85.53;97581.44;5019026;28;103876;-68
2022/01/04 01:23:05;;;;;;;1.60;1.03;;;;;;;11.14;85.75;97583.41;5018511;28;103288;-68
2022/01/04 01:25:34;;;;;;;1.80;0.93;;;;;;;11.19;85.50;97581.16;5015880;28;103184;-68
2022/01/04 01:28:02;;;;;;;1.10;0.70;;;;;;;11.13;86.04;97577.28;5015746;27;102672;-68
2022/01/04 01:30:36;;;;;;;1.40;0.90;;;;;;;11.13;86.23;97579.06;5015194;28;103897;-68
2022/01/04 01:33:04;;;;;;;1.17;0.80;;;;;;;11.05;86.66;97570.06;5016766;28;103978;-68
2022/01/04 01:35:33;;;;;;;1.40;0.90;;;;;;;11.11;86.49;97559.88;5020498;27;103172;-68
2022/01/04 01:38:03;;;;;;;0.97;0.83;;;;;;;11.13;86.57;97556.13;5012513;28;102627;-68
2022/01/04 01:40:32;;;;;;;1.13;0.80;;;;;;;11.13;86.63;97550.00;5016019;28;102629;-68
2022/01/04 01:43:00;;;;;;;0.90;0.77;;;;;;;11.14;86.74;97538.47;5008601;28;103599;-68
2022/01/04 01:45:28;;;;;;;1.03;0.70;;;;;;;11.11;87.03;97530.81;5016698;28;103199;-68
2022/01/04 01:47:58;;;;;;;1.53;0.80;;;;;;;11.13;87.14;97519.13;5016847;28;102555;-68
2022/01/04 01:50:26;;;;;;;1.10;0.80;;;;;;;11.06;87.51;97516.19;5008099;28;103869;-68
2022/01/04 01:52:55;;;;;;;1.43;1.03;;;;;;;11.02;87.84;97506.06;5018825;27;103714;-68
2022/01/04 01:55:24;;;;;;;1.30;0.80;;;;;;;11.02;87.88;97484.94;5009975;28;103229;-68
2022/01/04 01:57:53;;;;;;;1.00;0.90;;;;;;;11.00;88.14;97492.97;5010446;28;103102;-68
2022/01/04 02:00:24;;;;;;;1.30;1.03;;;;;;;11.02;88.12;97485.75;5016256;28;103024;-68
2022/01/04 02:02:52;;;;;;;1.10;0.90;;;;;;;11.00;88.28;97482.41;5013049;27;103197;-68
2022/01/04 02:05:23;;;;;;;2.90;0.83;;;;;;;10.93;88.51;97486.63;5017468;27;103227;-68
2022/01/04 02:07:51;;;;;;;2.33;0.90;;;;;;;10.90;88.57;97481.59;5017832;27;103357;-68
2022/01/04 02:10:20;;;;;;;1.73;0.90;;;;;;;10.95;88.41;97483.81;5016555;28;102851;-68
2022/01/04 02:12:50;;;;;;;1.30;1.00;;;;;;;10.98;88.43;97468.50;5016277;27;104545;-69
2022/01/04 02:15:22;;;;;;;1.50;1.30;;;;;;;11.05;87.90;97460.84;5008621;28;104217;-68
2022/01/04 02:17:53;;;;;;;2.07;1.00;;;;;;;11.07;88.02;97451.81;5018385;27;102705;-68
2022/01/04 02:20:23;;;;;;;1.97;0.93;;;;;;;11.02;88.07;97448.78;5016063;27;102844;-68
2022/01/04 02:22:52;;;;;;;1.23;0.73;;;;;;;11.04;88.20;97446.81;5016274;27;104333;-68
2022/01/04 02:25:20;;;;;;;1.20;1.00;;;;;;;10.99;88.22;97449.06;5018032;27;103219;-68
2022/01/04 02:27:49;;;;;;;1.97;0.90;;;;;;;11.01;88.37;97439.16;5015949;27;102590;-68
2022/01/04 02:30:19;;;;;;;2.20;1.10;;;;;;;10.99;88.56;97424.44;5016177;27;104157;-68
2022/01/04 02:32:48;;;;;;;1.90;0.93;;;;;;;11.05;88.12;97426.50;5015200;28;104082;-68
2022/01/04 02:35:20;;;;;;;1.57;0.93;;;;;;;11.05;88.11;97414.13;5014072;28;103180;-68
2022/01/04 02:37:50;;;;;;;1.30;1.20;;;;;;;10.99;88.19;97406.78;5007586;28;102741;-68
2022/01/04 02:40:17;;;;;;;1.07;0.90;;;;;;;11.00;88.27;97408.41;5015544;27;103285;-68
2022/01/04 02:42:45;;;;;;;1.77;1.20;;;;;;;10.92;88.57;97388.97;5014691;28;103863;-68
2022/01/04 02:45:14;;;;;;;1.40;1.10;;;;;;;10.99;88.18;97387.44;5012171;27;103194;-68
2022/01/04 02:47:44;;;;;;;1.83;1.20;;;;;;;11.06;87.59;97370.84;5017792;27;102651;-68
2022/01/04 02:50:13;;;;;;;1.40;1.10;;;;;;;11.02;87.51;97364.19;5012982;27;103807;-68
2022/01/04 02:52:41;;;;;;;1.30;1.20;;;;;;;10.99;87.73;97358.38;5017491;28;102720;-69
2022/01/04 02:55:15;;;;;;;2.40;1.30;;;;;;;11.02;87.45;97352.78;5015721;28;103238;-68
2022/01/04 02:57:43;;;;;;;1.40;1.20;;;;;;;11.07;86.69;97355.81;5012818;27;102720;-68
2022/01/04 03:00:14;;;;;;;1.27;1.17;;;;;;;11.07;86.64;97342.63;5012743;28;103882;-68
2022/01/04 03:02:43;;;;;;;1.73;1.20;;;;;;;11.14;86.31;97337.59;5009254;27;104159;-68
2022/01/04 03:05:14;;;;;;;1.60;1.20;;;;;;;11.14;86.44;97334.94;5013620;27;103240;-68
2022/01/04 03:07:43;;;;;;;1.70;1.30;;;;;;;11.17;86.55;97339.94;5017092;27;102699;-69
2022/01/04 03:10:12;;;;;;;2.47;1.50;;;;;;;11.20;86.66;97337.81;5020218;28;103709;-68
2022/01/04 03:12:42;;;;;;;1.87;1.57;;;;;;;11.14;86.70;97334.94;5018290;28;103952;-68
2022/01/04 03:15:12;;;;;;;1.47;1.20;;;;;;;11.18;86.88;97323.91;5018093;28;103305;-68
2022/01/04 03:17:40;;;;;;;2.27;1.03;;;;;;;11.20;86.74;97323.78;5021330;27;102687;-68
2022/01/04 03:20:09;;;;;;;2.50;1.53;;;;;;;11.20;86.91;97319.31;5018624;27;102585;-68
2022/01/04 03:22:38;;;;;;;1.60;0.93;;;;;;;11.24;86.96;97319.84;5003665;28;104475;-68
2022/01/04 03:25:07;;;;;;;2.17;1.40;;;;;;;11.16;87.01;97311.81;5018600;27;103727;-68
2022/01/04 03:27:36;;;;;;;2.00;1.20;;;;;;;11.16;87.42;97310.03;5022025;27;102616;-68
2022/01/04 03:30:08;;;;;;;1.60;1.17;;;;;;;11.22;87.36;97300.66;5018446;27;102744;-67
2022/01/04 03:32:37;;;;;;;1.30;1.03;;;;;;;11.22;87.33;97300.66;5013440;27;103995;-68
2022/01/04 03:35:09;;;;;;;3.13;1.40;;;;;;;11.10;87.78;97301.84;5019134;27;103544;-68
2022/01/04 03:37:37;;;;;;;1.67;1.50;;;;;;;11.12;87.82;97303.34;5015079;28;102546;-68
2022/01/04 03:40:06;;;;;;;1.57;1.47;;;;;;;11.09;88.03;97279.88;5012992;28;103956;-68
2022/01/04 03:42:36;;;;;;;2.23;1.60;;;;;;;11.09;87.63;97277.22;5015736;27;103996;-67
2022/01/04 03:45:05;;;;;;;1.80;1.27;;;;;;;11.19;87.74;97270.09;5013748;28;104034;-68
2022/01/04 03:47:33;;;;;;;2.60;1.50;;;;;;;11.12;88.68;97254.94;5015009;28;102845;-67
2022/01/04 03:50:01;;;;;;;2.10;1.20;;;;;;;11.15;87.98;97257.28;5014665;28;103967;-68
2022/01/04 03:52:29;;;;;;;3.13;1.50;;;;;;;11.17;88.75;97245.59;5017272;27;104112;-68
2022/01/04 03:54:57;;;;;;;2.40;1.10;;;;;;;11.18;88.55;97231.41;5015578;27;103192;-68
2022/01/04 03:57:25;;;;;;;1.17;1.00;;;;;;;11.13;88.61;97223.09;5010273;28;102656;-68
2022/01/04 03:59:54;;;;;;;2.10;1.17;;;;;;;11.10;88.81;97227.84;5006460;28;103611;-67
2022/01/04 04:02:23;;;;;;;1.87;1.27;;;;;;;11.10;88.40;97235.78;5016332;27;103241;-68
2022/01/04 04:04:51;;;;;;;1.30;1.20;;;;;;;11.17;88.39;97232.38;5018512;27;103181;-67
2022/01/04 04:07:21;;;;;;;1.60;1.30;;;;;;;11.13;88.72;97215.16;5018154;28;102631;-67
2022/01/04 04:09:49;;;;;;;1.60;1.10;;;;;;;11.15;88.73;97218.47;5011717;28;102700;-67
2022/01/04 04:12:17;;;;;;;1.07;0.80;;;;;;;11.19;88.61;97205.81;5018469;27;103230;-67
2022/01/04 04:14:45;;;;;;;1.03;0.93;;;;;;;11.14;88.39;97198.34;5019924;27;103188;-68
2022/01/04 04:17:20;;;;;;;1.13;1.00;;;;;;;11.15;88.58;97199.97;5017203;27;102726;-68
2022/01/04 04:19:48;;;;;;;1.40;1.20;;;;;;;11.21;88.72;97193.25;5019225;27;102574;-68
2022/01/04 04:22:16;;;;;;;1.73;1.13;;;;;;;11.14;89.33;97197.50;5018505;27;103201;-68
2022/01/04 04:24:45;;;;;;;2.37;1.07;;;;;;;11.10;89.37;97177.63;5016730;27;103174;-68
2022/01/04 04:27:13;;;;;;;1.90;1.20;;;;;;;11.15;89.35;97168.25;5013846;28;103963;-68
2022/01/04 04:29:42;;;;;;;2.43;0.97;;;;;;;11.19;88.74;97161.72;5018521;27;103804;-68
2022/01/04 04:32:12;;;;;;;1.67;1.03;;;;;;;11.21;89.34;97166.81;5012221;28;104099;-68
2022/01/04 04:34:42;;;;;;;1.33;0.90;;;;;;;11.27;89.86;97161.78;5009585;28;103224;-67
2022/01/04 04:37:12;;;;;;;1.27;0.90;;;;;;;11.29;89.96;97165.09;5015978;28;102715;-68
2022/01/04 04:39:40;;;;;;;1.07;0.60;;;;;;;11.32;89.89;97163.94;5017795;27;103312;-68
2022/01/04 04:42:11;;;;;;;0.80;0.80;;;;;;;11.28;89.90;97146.75;5017366;28;104110;-68
2022/01/04 04:44:39;;;;;;;0.80;0.80;;;;;;;11.31;90.28;97146.44;5008021;27;104274;-68
2022/01/04 04:47:07;;;;;;;1.37;0.80;;;;;;;11.19;90.59;97145.00;5005032;28;102638;-67
2022/01/04 04:49:38;;;;;;;1.73;0.80;;;;;;;11.19;91.31;97151.13;5016202;27;102735;-68
2022/01/04 04:52:08;;;;;;;0.87;0.83;;;;;;;11.11;91.72;97140.50;5018920;27;104121;-68
2022/01/04 04:54:36;;;;;;;0.93;0.83;;;;;;;11.16;91.87;97140.03;5018416;28;103152;-68
2022/01/04 04:57:04;;;;;;;2.20;0.80;;;;;;;11.15;92.17;97141.00;5018169;27;102553;-68
2022/01/04 04:59:32;;;;;;;0.87;0.87;;;;;;;11.13;92.09;97129.75;5016979;27;102666;-68
2022/01/04 05:02:02;;;;;;;0.60;0.60;;;;;;;11.12;92.57;97123.63;5016326;28;103847;-68
2022/01/04 05:04:30;;;;;;;1.30;0.90;;;;;;;11.07;92.25;97129.38;5018924;27;103223;-68
2022/01/04 05:06:58;;;;;;;1.37;0.80;;;;;;;11.13;93.06;97113.91;5011457;28;102599;-68
2022/01/04 05:09:28;;;;;;;0.70;0.70;;;;;;;11.13;93.57;97113.91;5017696;28;103952;-67
2022/01/04 05:11:57;;;;;;;1.60;0.90;;;;;;;11.09;93.79;97104.63;5016931;27;104165;-68
2022/01/04 05:14:25;;;;;;;0.73;0.63;;;;;;;11.15;93.58;97111.94;5017831;27;103232;-68
2022/01/04 05:16:53;;;;;;;1.50;0.90;;;;;;;11.17;94.01;97110.78;5016002;27;102687;-68
2022/01/04 05:19:21;;;;;;;0.80;0.70;;;;;;;11.15;94.46;97104.84;5018037;27;103848;-68
2022/01/04 05:21:49;;;;;;;0.70;0.70;;;;;;;11.03;94.95;97112.16;5016941;27;103707;-68
2022/01/04 05:24:19;;;;;;;1.10;0.93;;;;;;;11.13;94.61;97111.25;5018845;27;102940;-68
2022/01/04 05:26:48;;;;;;;2.70;1.00;;;;;;;11.12;94.88;97104.31;5016957;27;102685;-68
2022/01/04 05:29:16;;;;;;;1.67;0.80;;;;;;;11.09;95.43;97104.63;5008620;27;103922;-67
2022/01/04 05:31:44;;;;;;;1.43;1.00;;;;;;;11.07;96.12;97094.19;5019381;27;103207;-68
2022/01/04 05:34:13;;;;;;;1.60;0.93;;;;;;;10.99;96.21;97081.75;5013595;27;103200;-68
2022/01/04 05:36:41;;;;;;;0.97;0.87;;;;;;;11.12;95.80;97083.16;4995433;28;102979;-68
2022/01/04 05:39:09;;;;;;;1.57;1.10;;;;;;;11.09;96.10;97072.91;5012156;27;103803;-67
2022/01/04 05:41:37;;;;;;;1.90;1.10;;;;;;;11.07;96.14;97057.19;5016086;27;103246;-68
2022/01/04 05:44:06;;;;;;;1.67;0.90;;;;;;;11.07;96.23;97050.13;5015987;27;103186;-67
2022/01/04 05:46:34;;;;;;;1.20;1.10;;;;;;;11.12;96.53;97047.00;5016008;28;102585;-68
2022/01/04 05:49:03;;;;;;;1.77;1.23;;;;;;;11.04;97.09;97037.19;5006504;28;104268;-68
2022/01/04 05:51:31;;;;;;;1.40;0.80;;;;;;;11.10;96.65;97042.84;5015723;28;104108;-68
2022/01/04 05:53:59;;;;;;;1.30;0.90;;;;;;;11.10;96.48;97029.63;5016155;27;103199;-68
2022/01/04 05:56:27;;;;;;;1.60;0.87;;;;;;;11.09;96.98;97031.44;5011167;28;102709;-68
2022/01/04 05:58:55;;;;;;;1.00;0.90;;;;;;;11.12;97.04;97030.31;5009498;28;102626;-68
2022/01/04 06:01:24;;;;;;;1.00;0.90;;;;;;;11.06;97.59;97032.59;5005009;28;104201;-68
2022/01/04 06:03:53;;;;;;;0.93;0.87;;;;;;;11.05;97.97;97030.94;5005251;27;103804;-68
2022/01/04 06:06:20;;;;;;;1.63;1.00;;;;;;;11.03;98.19;97022.31;5017118;27;102678;-68
2022/01/04 06:08:50;;;;;;;0.80;0.80;;;;;;;11.07;97.89;97015.75;5005238;28;102895;-68
2022/01/04 06:11:43;;;;;;;0.93;0.90;;;;;;;11.13;97.76;97013.47;5014129;28;103217;-68
2022/01/04 06:16:58;;;;;;;2.00;0.90;;;;;;;11.01;98.78;97003.16;5013673;27;103247;-68
2022/01/04 06:19:27;;;;;;;1.40;0.80;;;;;;;11.04;99.18;96997.56;5016541;28;102953;-68
2022/01/04 06:21:55;;;;;;;1.33;0.90;;;;;;;11.07;98.97;96985.84;5009974;28;104205;-68
2022/01/04 06:24:23;;;;;;;1.50;0.80;;;;;;;11.09;99.58;96980.44;5002073;27;104047;-68
2022/01/04 06:26:52;;;;;;;1.13;1.00;;;;;;;11.10;99.73;96980.25;5017495;27;102731;-68
2022/01/04 06:29:22;;;;;;;1.30;0.83;;;;;;;11.20;98.95;96974.88;5017556;27;103984;-68
2022/01/04 06:31:50;;;;;;;1.33;0.73;;;;;;;11.25;98.58;96969.94;5005715;28;103250;-68
2022/01/04 06:34:20;;;;;;;0.80;0.80;;;;;;;11.26;98.77;96967.13;5009112;27;103248;-68
2022/01/04 06:36:47;;;;;;;2.10;1.00;;;;;;;11.21;99.31;96958.84;5015965;28;103524;-68
2022/01/04 06:39:15;;;;;;;2.03;0.90;;;;;;;11.19;99.57;96952.06;5008989;28;103678;-68
2022/01/04 06:41:43;;;;;;;1.63;0.70;;;;;;;11.20;99.81;96964.31;5018792;27;104100;-68
2022/01/04 06:44:11;;;;;;;1.30;0.90;;;;;;;11.27;99.39;96957.41;5021568;27;103241;-68
2022/01/04 06:46:45;;;;;;;0.87;0.80;;;;;;;11.23;99.77;96959.53;5010975;28;102755;-68
2022/01/04 06:49:13;;;;;;;1.63;1.00;;;;;;;11.23;100.00;96950.78;5013840;28;102751;-69
2022/01/04 06:51:44;;;;;;;1.30;0.93;;;;;;;11.18;100.00;96950.41;5014782;28;103311;-68
2022/01/04 06:54:17;;;;;;;1.70;0.67;;;;;;;11.28;99.94;96940.56;5013624;27;103185;-68
2022/01/04 06:56:45;;;;;;;1.67;0.97;;;;;;;11.19;100.00;96958.19;5019049;27;102603;-69
2022/01/04 06:59:14;;;;;;;0.87;0.77;;;;;;;11.22;100.00;96954.41;5014185;28;104090;-69
2022/01/04 07:01:43;;;;;;;0.90;0.90;;;;;;;11.29;100.00;96955.41;5011776;28;105171;-68
2022/01/04 07:04:12;;;;;;;1.57;0.90;;;;;;;11.19;100.00;96938.84;4998725;28;105764;-69
2022/01/04 07:06:40;;;;;;;1.47;0.97;;;;;;;11.29;100.00;96936.91;5018903;28;102739;-68
2022/01/04 07:09:10;;;;;;;1.20;0.97;;;;;;;11.26;100.00;96937.22;5009879;28;103021;-69
2022/01/04 07:11:38;;;;;;;1.40;0.83;;;;;;;11.29;100.00;96931.63;5011371;28;104598;-69
2022/01/04 07:14:06;;;;;;;2.90;1.00;;;;;;;11.26;100.00;96922.19;5018009;28;103179;-69
2022/01/04 07:16:34;;;;;;;1.47;0.60;;;;;;;11.32;100.00;96920.75;5018218;27;102653;-69
2022/01/04 07:19:03;;;;;;;1.00;0.90;;;;;;;11.32;100.00;96916.28;5020955;27;103764;-69
2022/01/04 07:21:34;;;;;;;1.83;0.80;;;;;;;11.36;100.00;96908.88;5018873;27;103859;-69
2022/01/04 07:24:05;;;;;;;2.57;1.13;;;;;;;11.33;100.00;96907.38;5019396;28;103195;-69
2022/01/04 07:26:35;;;;;;;1.97;0.93;;;;;;;11.35;100.00;96912.50;5005525;28;102742;-69
2022/01/04 07:29:03;;;;;;;1.03;0.93;;;;;;;11.30;100.00;96904.22;5019058;28;102583;-69
2022/01/04 07:31:31;;;;;;;1.63;0.77;;;;;;;11.31;100.00;96906.69;5020518;27;103271;-69
2022/01/04 07:34:00;;;;;;;0.80;0.80;;;;;;;11.32;100.00;96904.88;5002577;27;103292;-69
2022/01/04 07:36:29;;;;;;;1.83;1.03;;;;;;;11.33;100.00;96901.25;5019807;28;102757;-69
2022/01/04 07:38:57;;;;;;;1.63;0.87;;;;;;;11.39;100.00;96895.34;4998242;28;103675;-69
2022/01/04 07:41:25;;;;;;;1.87;1.17;;;;;;;11.33;100.00;96890.69;5014609;27;103343;-69
2022/01/04 07:43:54;;;;;;;1.43;1.00;;;;;;;11.35;100.00;96889.53;5007211;27;104066;-69
2022/01/04 07:46:23;;;;;;;1.40;0.80;;;;;;;11.39;100.00;96885.59;5018198;27;102770;-69
2022/01/04 07:48:51;;;;;;;0.90;0.80;;;;;;;11.49;100.00;96880.16;5018056;28;103873;-69
2022/01/04 07:51:20;;;;;;;1.13;0.90;;;;;;;11.44;100.00;96866.59;5020578;27;103250;-69
2022/01/04 07:53:48;;;;;;;0.70;0.70;;;;;;;11.52;100.00;96858.69;5007335;28;104152;-69
2022/01/04 07:56:16;;;;;;;2.60;0.60;;;;;;;11.52;100.00;96850.75;5018358;27;102699;-69
2022/01/04 07:58:44;;;;;;;1.97;1.10;;;;;;;11.55;100.00;96846.00;5017604;28;103265;-69
2022/01/04 08:01:14;;;;;;;1.53;1.43;;;;;;;11.59;100.00;96854.44;5013441;28;104228;-69
2022/01/04 08:03:42;;;;;;;2.80;0.70;;;;;;;11.52;100.00;96853.41;5017992;27;104539;-69
2022/01/04 08:06:10;;;;;;;0.70;0.70;;;;;;;11.58;100.00;96837.75;5012195;27;102962;-71
2022/01/04 08:08:38;;;;;;;0.73;0.73;;;;;;;11.53;100.00;96845.34;5014235;28;102731;-69
2022/01/04 08:11:09;;;;;;;1.47;1.00;;;;;;;11.62;100.00;96838.25;5018388;27;103566;-69
2022/01/04 08:13:37;;;;;;;1.53;1.00;;;;;;;11.70;100.00;96851.53;5018945;28;103195;-69
2022/01/04 08:16:05;;;;;;;1.87;0.90;;;;;;;11.70;100.00;96842.75;5001190;27;103080;-69
2022/01/04 08:18:35;;;;;;;1.30;1.20;;;;;;;11.70;100.00;96851.53;5007843;28;104014;-69
2022/01/04 08:21:23;;;;;;;1.20;0.60;;;;;;;11.73;100.00;96845.91;5009871;27;103035;-69
2022/01/04 08:23:52;;;;;;;2.03;0.90;;;;;;;11.80;100.00;96838.97;5018246;28;103216;-69
2022/01/04 08:26:20;;;;;;;1.83;0.77;;;;;;;11.74;100.00;96836.97;5018621;28;102772;-69
2022/01/04 08:28:48;;;;;;;1.07;0.80;;;;;;;11.82;100.00;96834.31;5013483;28;103707;-69
2022/01/04 08:31:16;;;;;;;1.37;0.90;;;;;;;11.86;100.00;96829.53;5017761;27;103745;-69
2022/01/04 08:33:53;;;;;;;0.97;0.70;;;;;;;11.89;100.00;96835.34;5017688;28;103279;-69
2022/01/04 08:36:21;;;;;;;0.90;0.70;;;;;;;11.98;100.00;96837.00;5017937;28;104535;-70
2022/01/04 08:38:49;;;;;;;3.13;0.80;;;;;;;11.98;100.00;96837.00;4998437;28;104313;-70
2022/01/04 08:41:17;;;;;;;1.30;0.83;;;;;;;11.95;100.00;96828.56;5020593;27;103992;-70
2022/01/04 08:43:46;;;;;;;1.90;0.70;;;;;;;11.98;100.00;96826.44;5018075;28;103207;-70
2022/01/04 08:46:14;;;;;;;1.87;0.90;;;;;;;12.07;100.00;96821.97;5019376;27;102653;-69
2022/01/04 08:48:42;;;;;;;0.80;0.67;;;;;;;12.04;100.00;96801.94;5017399;27;103937;-70
2022/01/04 08:51:12;;;;;;;2.27;0.77;;;;;;;12.07;100.00;96791.00;5018811;28;104166;-70
2022/01/04 08:53:40;;;;;;;0.83;0.70;;;;;;;12.11;100.00;96808.22;5012904;27;103199;-69
2022/01/04 08:56:08;;;;;;;1.90;0.77;;;;;;;12.19;99.76;96805.56;5016624;28;102663;-69
2022/01/04 08:58:36;;;;;;;0.70;0.70;;;;;;;12.20;100.00;96801.13;5017321;28;103700;-69
2022/01/04 09:01:04;;;;;;;0.80;0.70;;;;;;;12.21;99.69;96798.28;5017312;27;103284;-69
2022/01/04 09:03:33;;;;;;;1.00;0.67;;;;;;;12.27;99.25;96804.72;5016806;27;103380;-69
2022/01/04 09:06:04;;;;;;;0.83;0.60;;;;;;;12.28;99.35;96802.91;5018758;27;102868;-70
2022/01/04 09:08:33;;;;;;;1.13;0.60;;;;;;;12.27;99.08;96793.34;5011973;28;102928;-70
2022/01/04 09:11:01;;;;;;;1.57;0.80;;;;;;;12.33;98.40;96797.94;5018038;27;104678;-69
2022/01/04 09:13:36;;;;;;;1.30;0.60;;;;;;;12.28;99.05;96792.34;5018125;27;103205;-69
2022/01/04 09:18:53;;;;;;;1.10;0.73;;;;;;;12.31;98.10;96792.00;5016810;27;102866;-69
2022/01/04 09:21:28;;;;;;;1.00;0.80;;;;;;;12.35;98.27;96778.25;5016433;27;103281;-69
2022/01/04 09:24:00;;;;;;;1.00;0.77;;;;;;;12.31;98.48;96784.06;5015317;27;103866;-69
2022/01/04 09:26:29;;;;;;;0.97;0.87;;;;;;;12.28;98.20;96774.63;5010077;28;102832;-69
2022/01/04 09:28:57;;;;;;;0.70;0.70;;;;;;;12.30;98.82;96785.03;5020701;27;103504;-69
2022/01/04 09:31:28;;;;;;;0.67;0.60;;;;;;;12.33;98.18;96776.75;5019240;27;103690;-69
2022/01/04 09:33:58;;;;;;;1.33;0.80;;;;;;;12.29;98.50;96756.94;5013481;27;104321;-69
2022/01/04 09:36:29;;;;;;;1.10;0.80;;;;;;;12.35;98.56;96761.56;5012758;28;102711;-69
2022/01/04 09:38:59;;;;;;;0.90;0.70;;;;;;;12.43;98.73;96745.66;5006802;27;102689;-69
2022/01/04 09:41:27;;;;;;;1.23;0.83;;;;;;;12.30;99.50;96742.69;5015049;27;103249;-69
2022/01/04 09:43:56;;;;;;;0.80;0.80;;;;;;;12.37;99.62;96739.22;5010040;27;102962;-69
2022/01/04 09:46:24;;;;;;;1.00;0.90;;;;;;;12.21;100.00;96750.63;5006432;28;102979;-69
2022/01/04 09:48:52;;;;;;;1.37;0.90;;;;;;;12.25;99.34;96755.59;5005178;28;104105;-69
2022/01/04 09:51:20;;;;;;;1.10;0.90;;;;;;;12.30;99.58;96769.16;5013186;27;103287;-69
2022/01/04 09:53:49;;;;;;;1.43;0.87;;;;;;;12.31;99.54;96765.53;5010999;28;103183;-69
2022/01/04 09:56:18;;;;;;;1.37;0.90;;;;;;;12.25;99.47;96760.91;5017160;27;102996;-69
2022/01/04 09:58:47;;;;;;;0.80;0.80;;;;;;;12.26;99.68;96768.69;5009683;28;103114;-69
2022/01/04 10:01:22;;;;;;;1.13;0.70;;;;;;;12.35;99.48;96762.38;5013959;28;103758;-69
2022/01/04 10:04:14;;;;;;;0.97;0.77;;;;;;;12.31;99.87;96749.63;5012673;28;103150;-69
2022/01/04 10:06:57;;;;;;;1.10;1.00;;;;;;;12.38;99.82;96748.00;5016248;28;102800;-69
2022/01/04 10:09:36;;;;;;;1.37;1.10;;;;;;;12.32;99.72;96751.31;5010367;28;104086;-69
2022/01/04 10:12:07;;;;;;;2.27;1.00;;;;;;;12.36;99.88;96742.00;5009911;27;103762;-69
2022/01/04 10:14:39;;;;;;;1.20;1.00;;;;;;;12.38;99.95;96734.75;5000396;28;104230;-69
2022/01/04 10:17:09;;;;;;;1.83;0.90;;;;;;;12.39;99.88;96739.03;5007901;28;104442;-69
2022/01/04 10:19:41;;;;;;;1.70;0.90;;;;;;;12.38;98.99;96732.91;5017608;27;103537;-69
2022/01/04 10:22:15;;;;;;;1.87;0.80;;;;;;;12.49;99.33;96731.75;5015353;27;103721;-69
2022/01/04 10:24:44;;;;;;;2.30;0.90;;;;;;;12.45;99.32;96719.81;5010388;28;104120;-69
2022/01/04 10:27:25;;;;;;;1.33;0.80;;;;;;;12.45;99.27;96720.66;5007905;28;102837;-69
2022/01/04 10:30:27;;;;;;;1.53;0.93;;;;;;;12.43;98.93;96717.34;5018463;27;102603;-69
2022/01/04 10:32:58;;;;;;;1.10;1.00;;;;;;;12.42;98.49;96731.59;5011021;27;103519;-70
2022/01/04 10:35:29;;;;;;;2.13;1.20;;;;;;;12.56;98.76;96700.91;5012494;28;104267;-69
2022/01/04 10:38:01;;;;;;;4.60;1.20;;;;;;;12.52;98.01;96689.03;5010020;28;102610;-70
2022/01/04 10:40:29;;;;;;;3.20;1.10;;;;;;;12.57;98.55;96697.28;5018021;28;103631;-70
2022/01/04 10:43:08;;;;;;;1.53;1.10;;;;;;;12.66;98.41;96694.41;5014396;27;103652;-70
2022/01/04 10:45:41;;;;;;;1.47;1.00;;;;;;;12.57;97.52;96695.47;5008469;28;104136;-70
2022/01/04 10:48:15;;;;;;;1.00;0.90;;;;;;;12.71;97.89;96689.44;5016741;28;102624;-70
2022/01/04 10:50:45;;;;;;;1.30;0.93;;;;;;;12.69;97.52;96701.19;5019331;27;104074;-69
2022/01/04 10:53:28;;;;;;;2.30;1.30;;;;;;;12.65;97.73;96706.03;5016623;27;103455;-70
2022/01/04 10:56:00;;;;;;;1.20;1.07;;;;;;;12.65;97.91;96702.53;5016201;28;102852;-70
2022/01/04 10:58:34;;;;;;;1.53;1.17;;;;;;;12.57;97.94;96702.56;5014381;28;102731;-70
2022/01/04 11:01:04;;;;;;;2.17;0.90;;;;;;;12.62;97.48;96702.88;5017954;27;103534;-69
2022/01/04 11:03:35;;;;;;;1.93;1.10;;;;;;;12.64;96.72;96693.75;5015546;28;104077;-69
2022/01/04 11:06:06;;;;;;;1.63;0.80;;;;;;;12.76;97.06;96696.88;5016213;27;103223;-69
2022/01/04 11:08:35;;;;;;;1.37;1.13;;;;;;;12.64;97.10;96688.47;5017324;28;102928;-69
2022/01/04 11:11:04;;;;;;;1.80;1.17;;;;;;;12.66;96.52;96680.34;5014228;28;103998;-69
2022/01/04 11:13:34;;;;;;;1.30;1.20;;;;;;;12.70;96.41;96682.50;5016713;27;104278;-69
2022/01/04 11:16:03;;;;;;;1.10;1.00;;;;;;;12.68;96.38;96694.25;5012267;27;103188;-69
2022/01/04 11:18:32;;;;;;;2.33;1.00;;;;;;;12.74;95.01;96707.63;5018130;27;102804;-69
2022/01/04 11:21:01;;;;;;;1.40;1.10;;;;;;;12.78;95.60;96710.75;5003456;28;102702;-69
2022/01/04 11:23:31;;;;;;;1.30;1.20;;;;;;;12.75;95.72;96705.81;5011851;28;104426;-69
2022/01/04 11:26:03;;;;;;;1.43;1.23;;;;;;;12.66;94.90;96699.72;5014286;27;103226;-69
2022/01/04 11:28:31;;;;;;;1.07;0.90;;;;;;;12.77;95.38;96694.03;5012159;28;102650;-69
2022/01/04 11:31:23;;;;;;;1.97;1.10;;;;;;;12.74;94.86;96693.56;5015263;27;102654;-69
2022/01/04 11:34:00;;;;;;;1.83;1.10;;;;;;;12.73;95.68;96689.25;5005786;28;104184;-69
2022/01/04 11:36:29;;;;;;;5.80;1.00;;;;;;;12.70;95.54;96676.34;5017771;27;103045;-69
2022/01/04 11:38:57;;;;;;;1.33;1.00;;;;;;;12.66;95.59;96685.63;5010491;28;102646;-69
2022/01/04 11:41:41;;;;;;;1.47;1.37;;;;;;;12.61;96.60;96682.69;5002077;28;104030;-69
2022/01/04 11:44:19;;;;;;;1.27;1.03;;;;;;;12.57;95.42;96682.22;5015015;28;103747;-69
2022/01/04 11:47:04;;;;;;;2.03;1.37;;;;;;;12.54;94.76;96677.25;5011079;28;103358;-70